createdAt,value
2018-05-10T00:00:08.906Z,7.20
2018-05-10T00:02:36.447Z,5.47
2018-05-10T00:05:03.962Z,9.00
2018-05-10T00:07:31.490Z,8.93
2018-05-10T00:09:59.024Z,6.53
2018-05-10T00:12:45.843Z,6.77
2018-05-10T00:15:13.411Z,5.03
2018-05-10T00:17:40.955Z,5.00
2018-05-10T00:20:08.502Z,7.63
2018-05-10T00:22:36.029Z,8.37
2018-05-10T00:25:03.570Z,8.30
2018-05-10T00:27:31.875Z,6.93
2018-05-10T00:29:59.408Z,7.00
2018-05-10T00:32:26.933Z,9.40
2018-05-10T00:34:54.503Z,6.17
2018-05-10T00:37:22.035Z,6.23
2018-05-10T00:39:49.562Z,8.30
2018-05-10T00:44:49.896Z,8.13
2018-05-10T00:47:17.441Z,6.63
2018-05-10T00:49:44.980Z,6.00
2018-05-10T00:52:12.551Z,7.87
2018-05-10T00:54:52.578Z,5.30
2018-05-10T00:57:20.132Z,5.97
2018-05-10T00:59:47.659Z,9.50
2018-05-10T01:02:15.175Z,9.57
2018-05-10T01:04:42.747Z,6.07
2018-05-10T01:07:10.279Z,4.93
2018-05-10T01:09:37.804Z,5.20
2018-05-10T01:12:05.348Z,4.43
2018-05-10T01:14:32.887Z,4.33
2018-05-10T01:17:00.403Z,4.83
2018-05-10T01:19:27.958Z,5.87
2018-05-10T01:21:55.492Z,4.87
2018-05-10T01:24:23.017Z,4.07
2018-05-10T01:26:50.602Z,4.27
2018-05-10T01:29:18.144Z,3.90
2018-05-10T01:31:45.666Z,4.30
2018-05-10T01:34:13.206Z,4.20
2018-05-10T01:36:40.750Z,5.37
2018-05-10T01:39:08.307Z,6.43
2018-05-10T01:41:35.853Z,4.90
2018-05-10T01:44:03.391Z,4.00
2018-05-10T01:46:30.935Z,5.30
2018-05-10T01:48:59.242Z,4.43
2018-05-10T01:51:26.779Z,4.23
2018-05-10T01:53:54.320Z,6.13
2018-05-10T01:56:22.631Z,4.70
2018-05-10T01:58:50.167Z,7.73
2018-05-10T02:01:17.704Z,5.10
2018-05-10T02:03:45.233Z,5.00
2018-05-10T02:06:12.773Z,7.43
2018-05-10T02:08:40.344Z,6.67
2018-05-10T02:11:07.864Z,6.27
2018-05-10T02:13:35.435Z,6.20
2018-05-10T02:16:02.974Z,5.80
2018-05-10T02:18:30.495Z,6.33
2018-05-10T02:20:58.037Z,6.57
2018-05-10T02:23:25.579Z,8.53
2018-05-10T02:25:53.102Z,5.00
2018-05-10T02:28:20.676Z,5.03
2018-05-10T02:30:48.199Z,7.43
2018-05-10T02:33:15.743Z,9.63
2018-05-10T02:35:43.281Z,6.93
2018-05-10T02:38:10.798Z,4.97
2018-05-10T02:40:38.368Z,8.10
2018-05-10T02:43:05.949Z,10.20
2018-05-10T02:45:33.466Z,5.40
2018-05-10T02:48:01.016Z,4.30
2018-05-10T02:50:28.559Z,4.97
2018-05-10T02:52:56.096Z,5.57
2018-05-10T02:55:23.622Z,5.20
2018-05-10T02:57:51.255Z,6.00
2018-05-10T03:00:19.505Z,6.83
2018-05-10T03:02:47.091Z,7.27
2018-05-10T03:05:14.611Z,6.77
2018-05-10T03:07:42.166Z,7.33
2018-05-10T03:10:09.674Z,5.33
2018-05-10T03:12:37.250Z,6.13
2018-05-10T03:15:04.790Z,8.77
2018-05-10T03:17:33.096Z,7.37
2018-05-10T03:20:00.636Z,6.17
2018-05-10T03:22:28.307Z,5.10
2018-05-10T03:24:55.874Z,5.40
2018-05-10T03:27:23.427Z,5.10
2018-05-10T03:29:50.946Z,5.30
2018-05-10T03:32:23.399Z,5.67
2018-05-10T03:34:50.919Z,6.30
2018-05-10T03:37:18.473Z,6.43
2018-05-10T03:39:46.751Z,7.60
2018-05-10T03:42:14.429Z,5.50
2018-05-10T03:44:42.098Z,6.37
2018-05-10T03:47:09.676Z,6.27
2018-05-10T03:49:37.203Z,6.63
2018-05-10T03:52:04.851Z,7.90
2018-05-10T03:54:32.384Z,6.17
2018-05-10T03:57:00.670Z,6.47
2018-05-10T03:59:28.235Z,6.23
2018-05-10T04:01:56.518Z,7.43
2018-05-10T04:04:35.918Z,7.03
2018-05-10T04:07:15.143Z,6.87
2018-05-10T04:09:54.402Z,9.13
2018-05-10T04:15:15.543Z,6.77
2018-05-10T04:17:43.113Z,5.67
2018-05-10T04:20:10.663Z,6.87
2018-05-10T04:22:38.171Z,5.77
2018-05-10T04:25:05.720Z,7.57
2018-05-10T04:27:33.280Z,7.20
2018-05-10T04:30:00.799Z,5.97
2018-05-10T04:32:28.352Z,8.93
2018-05-10T04:34:55.870Z,6.90
2018-05-10T04:37:23.397Z,6.67
2018-05-10T04:39:50.961Z,6.77
2018-05-10T04:42:18.499Z,7.00
2018-05-10T04:44:46.018Z,5.93
2018-05-10T04:47:13.575Z,5.73
2018-05-10T04:49:41.125Z,6.43
2018-05-10T04:52:08.651Z,6.47
2018-05-10T04:54:36.196Z,6.50
2018-05-10T04:57:03.714Z,8.13
2018-05-10T04:59:31.246Z,6.97
2018-05-10T05:01:58.751Z,8.77
2018-05-10T05:04:26.286Z,7.33
2018-05-10T05:06:53.839Z,7.63
2018-05-10T05:09:21.378Z,7.17
2018-05-10T05:11:48.921Z,7.40
2018-05-10T05:14:16.477Z,6.70
2018-05-10T05:16:44.003Z,5.97
2018-05-10T05:19:11.532Z,6.30
2018-05-10T05:21:39.129Z,5.73
2018-05-10T05:24:06.687Z,6.77
2018-05-10T05:26:34.214Z,5.53
2018-05-10T05:29:01.802Z,8.93
2018-05-10T05:31:30.085Z,6.07
2018-05-10T05:34:16.616Z,5.63
2018-05-10T05:36:44.143Z,6.57
2018-05-10T05:39:11.667Z,6.27
2018-05-10T05:41:39.219Z,7.57
2018-05-10T05:44:06.731Z,7.43
2018-05-10T05:46:34.262Z,8.50
2018-05-10T05:49:02.562Z,12.03
2018-05-10T05:51:30.082Z,7.73
2018-05-10T05:53:57.589Z,7.73
2018-05-10T05:56:25.175Z,7.93
2018-05-10T05:58:52.678Z,9.93
2018-05-10T06:01:20.240Z,11.90
2018-05-10T06:03:48.546Z,9.27
2018-05-10T06:06:16.080Z,9.03
2018-05-10T06:08:43.751Z,12.70
2018-05-10T06:11:11.212Z,9.47
2018-05-10T06:13:38.784Z,9.30
2018-05-10T06:16:06.399Z,9.17
2018-05-10T06:18:33.979Z,10.77
2018-05-10T06:21:02.280Z,10.17
2018-05-10T06:23:29.808Z,12.33
2018-05-10T06:25:58.138Z,13.43
2018-05-10T06:28:25.650Z,10.93
2018-05-10T06:30:53.186Z,12.57
2018-05-10T06:33:20.759Z,11.63
2018-05-10T06:35:48.299Z,11.93
2018-05-10T06:38:15.840Z,12.63
2018-05-10T06:40:43.464Z,11.40
2018-05-10T06:43:11.013Z,13.47
2018-05-10T06:45:38.540Z,10.27
2018-05-10T06:48:06.115Z,9.97
2018-05-10T06:50:33.667Z,11.17
2018-05-10T06:53:01.979Z,8.40
2018-05-10T06:55:29.533Z,8.67
2018-05-10T06:57:57.100Z,14.40
2018-05-10T07:00:24.658Z,12.47
2018-05-10T07:02:52.264Z,10.57
2018-05-10T07:05:19.831Z,17.43
2018-05-10T07:07:47.357Z,18.87
2018-05-10T07:10:14.892Z,20.07
2018-05-10T07:12:42.468Z,15.47
2018-05-10T07:15:09.987Z,11.00
2018-05-10T07:17:37.531Z,12.10
2018-05-10T07:20:05.888Z,9.60
2018-05-10T07:22:33.558Z,11.17
2018-05-10T07:25:01.087Z,8.70
2018-05-10T07:27:28.660Z,9.20
2018-05-10T07:29:56.207Z,9.87
2018-05-10T07:32:33.535Z,12.50
2018-05-10T07:35:01.059Z,8.43
2018-05-10T07:37:28.601Z,13.70
2018-05-10T07:39:56.114Z,10.33
2018-05-10T07:42:23.684Z,11.67
2018-05-10T07:44:51.227Z,10.53
2018-05-10T07:47:19.528Z,10.43
2018-05-10T07:49:47.086Z,8.27
2018-05-10T07:52:14.631Z,8.53
2018-05-10T07:54:42.183Z,9.00
2018-05-10T07:57:09.747Z,8.73
2018-05-10T07:59:38.100Z,6.57
2018-05-10T08:02:05.576Z,10.30
2018-05-10T08:04:33.121Z,9.73
2018-05-10T08:07:00.650Z,9.17
2018-05-10T08:09:28.174Z,10.87
2018-05-10T08:11:55.729Z,8.93
2018-05-10T08:14:23.304Z,11.87
2018-05-10T08:16:50.851Z,7.43
2018-05-10T08:19:18.390Z,7.47
2018-05-10T08:21:45.924Z,8.73
2018-05-10T08:24:13.474Z,10.53
2018-05-10T08:26:41.008Z,5.80
2018-05-10T08:29:08.539Z,7.47
2018-05-10T08:31:36.095Z,8.37
2018-05-10T08:34:03.621Z,6.63
2018-05-10T08:36:31.205Z,7.07
2018-05-10T08:38:58.699Z,6.77
2018-05-10T08:41:26.244Z,7.43
2018-05-10T08:43:53.783Z,6.70
2018-05-10T08:46:21.371Z,9.30
2018-05-10T08:48:48.907Z,6.57
2018-05-10T08:51:16.452Z,6.63
2018-05-10T08:53:44.019Z,7.60
2018-05-10T08:56:11.573Z,7.93
2018-05-10T08:58:39.128Z,6.90
2018-05-10T09:01:06.684Z,7.43
2018-05-10T09:03:34.976Z,8.93
2018-05-10T09:06:02.502Z,7.33
2018-05-10T09:08:30.035Z,6.00
2018-05-10T09:10:57.552Z,7.53
2018-05-10T09:13:25.114Z,5.33
2018-05-10T09:15:52.655Z,6.13
2018-05-10T09:18:20.206Z,7.30
2018-05-10T09:20:47.776Z,7.60
2018-05-10T09:23:16.115Z,6.17
2018-05-10T09:25:43.651Z,6.67
2018-05-10T09:28:11.188Z,7.47
2018-05-10T09:30:38.723Z,7.97
2018-05-10T09:33:06.303Z,6.23
2018-05-10T09:35:33.837Z,6.10
2018-05-10T09:38:01.363Z,9.83
2018-05-10T09:40:28.943Z,6.97
2018-05-10T09:42:56.463Z,6.30
2018-05-10T09:45:24.016Z,6.27
2018-05-10T09:47:51.584Z,7.30
2018-05-10T09:50:19.099Z,8.97
2018-05-10T09:52:51.523Z,10.30
2018-05-10T09:55:19.071Z,7.43
2018-05-10T09:57:46.613Z,7.13
2018-05-10T10:00:19.788Z,8.13
2018-05-10T10:02:47.307Z,9.50
2018-05-10T10:05:14.835Z,10.17
2018-05-10T10:07:42.370Z,7.43
2018-05-10T10:10:09.955Z,9.13
2018-05-10T10:12:37.488Z,8.17
2018-05-10T10:15:05.040Z,8.20
2018-05-10T10:17:32.603Z,7.23
2018-05-10T10:20:00.148Z,6.67
2018-05-10T10:22:27.703Z,7.37
2018-05-10T10:24:55.299Z,6.63
2018-05-10T10:27:22.845Z,7.40
2018-05-10T10:29:50.438Z,7.33
2018-05-10T10:32:18.046Z,12.40
2018-05-10T10:34:45.509Z,7.73
2018-05-10T10:37:13.220Z,11.03
2018-05-10T10:39:40.735Z,6.50
2018-05-10T10:42:08.254Z,6.97
2018-05-10T10:44:35.827Z,7.10
2018-05-10T10:47:03.395Z,8.07
2018-05-10T10:49:31.702Z,5.87
2018-05-10T10:51:59.240Z,5.70
2018-05-10T10:54:26.811Z,6.70
2018-05-10T10:56:54.372Z,5.30
2018-05-10T10:59:21.912Z,5.10
2018-05-10T11:01:49.552Z,6.67
2018-05-10T11:04:17.022Z,7.67
2018-05-10T11:06:45.318Z,8.20
2018-05-10T11:09:12.860Z,10.70
2018-05-10T11:11:41.179Z,7.10
2018-05-10T11:14:08.722Z,6.43
2018-05-10T11:16:36.319Z,7.10
2018-05-10T11:19:03.842Z,6.47
2018-05-10T11:21:31.371Z,7.93
2018-05-10T11:24:09.457Z,5.57
2018-05-10T11:26:37.030Z,4.90
2018-05-10T11:29:04.512Z,6.77
2018-05-10T11:31:32.082Z,4.30
2018-05-10T11:36:52.909Z,4.07
2018-05-10T11:39:20.443Z,3.27
2018-05-10T11:41:48.025Z,4.23
2018-05-10T11:47:31.885Z,4.40
2018-05-10T11:50:00.176Z,3.47
2018-05-10T11:52:27.746Z,3.10
2018-05-10T11:54:55.383Z,4.43
2018-05-10T11:57:22.985Z,4.47
2018-05-10T11:59:50.483Z,4.10
2018-05-10T12:02:18.016Z,4.53
2018-05-10T12:04:45.574Z,3.20
2018-05-10T12:07:13.125Z,3.83
2018-05-10T12:09:40.647Z,2.87
2018-05-10T12:12:08.179Z,2.80
2018-05-10T12:14:35.762Z,1.90
2018-05-10T12:17:03.296Z,1.90
2018-05-10T12:19:30.827Z,3.57
2018-05-10T12:21:58.423Z,2.83
2018-05-10T12:24:25.959Z,3.07
2018-05-10T12:26:54.282Z,2.87
2018-05-10T12:29:21.794Z,3.47
2018-05-10T12:31:49.334Z,2.07
2018-05-10T12:34:16.908Z,2.00
2018-05-10T12:36:44.512Z,1.87
2018-05-10T12:39:12.008Z,2.10
2018-05-10T12:41:40.311Z,2.50
2018-05-10T12:44:07.880Z,2.43
2018-05-10T12:46:35.424Z,1.70
2018-05-10T12:49:02.996Z,2.27
2018-05-10T12:51:30.555Z,1.60
2018-05-10T12:53:58.082Z,2.77
2018-05-10T12:56:25.699Z,3.20
2018-05-10T12:58:53.974Z,2.97
2018-05-10T13:01:21.492Z,2.97
2018-05-10T13:03:49.020Z,2.50
2018-05-10T13:06:16.620Z,3.80
2018-05-10T13:08:44.174Z,2.77
2018-05-10T13:11:11.698Z,4.50
2018-05-10T13:13:39.240Z,2.33
2018-05-10T13:16:06.849Z,3.80
2018-05-10T13:18:34.329Z,2.70
2018-05-10T13:21:01.831Z,2.30
2018-05-10T13:23:29.410Z,5.33
2018-05-10T13:25:56.979Z,2.30
2018-05-10T13:28:24.495Z,3.10
2018-05-10T13:30:52.029Z,3.20
2018-05-10T13:33:19.568Z,1.60
2018-05-10T13:35:47.102Z,1.70
2018-05-10T13:38:15.463Z,1.87
2018-05-10T13:40:42.935Z,2.40
2018-05-10T13:43:21.049Z,2.17
2018-05-10T13:45:49.355Z,3.30
2018-05-10T13:48:16.870Z,2.53
2018-05-10T13:50:44.450Z,6.93
2018-05-10T13:53:11.980Z,3.00
2018-05-10T13:55:39.536Z,3.20
2018-05-10T13:58:07.069Z,2.90
2018-05-10T14:00:34.588Z,6.33
2018-05-10T14:03:07.050Z,3.57
2018-05-10T14:05:34.588Z,2.40
2018-05-10T14:08:02.127Z,2.50
2018-05-10T14:10:29.675Z,3.20
2018-05-10T14:12:57.226Z,4.17
2018-05-10T14:15:24.803Z,3.60
2018-05-10T14:17:52.358Z,4.60
2018-05-10T14:20:19.897Z,2.73
2018-05-10T14:22:47.416Z,2.67
2018-05-10T14:25:15.035Z,3.13
2018-05-10T14:27:43.284Z,2.77
2018-05-10T14:30:10.811Z,2.63
2018-05-10T14:32:39.146Z,2.40
2018-05-10T14:35:06.667Z,2.50
2018-05-10T14:37:34.236Z,3.23
2018-05-10T14:40:01.840Z,2.77
2018-05-10T14:42:29.360Z,3.87
2018-05-10T14:44:56.898Z,2.50
2018-05-10T14:47:24.423Z,3.90
2018-05-10T14:49:51.982Z,5.07
2018-05-10T14:52:19.506Z,2.33
2018-05-10T14:54:47.035Z,2.50
2018-05-10T14:57:14.625Z,2.93
2018-05-10T14:59:42.177Z,4.67
2018-05-10T15:02:09.712Z,3.60
2018-05-10T15:04:37.293Z,2.37
2018-05-10T15:07:04.807Z,3.53
2018-05-10T15:09:33.097Z,4.03
2018-05-10T15:12:00.630Z,3.13
2018-05-10T15:14:28.180Z,3.37
2018-05-10T15:16:55.709Z,4.27
2018-05-10T15:19:23.255Z,3.23
2018-05-10T15:21:50.783Z,2.70
2018-05-10T15:24:18.346Z,2.57
2018-05-10T15:26:46.814Z,3.63
2018-05-10T15:29:15.106Z,2.37
2018-05-10T15:31:42.666Z,3.33
2018-05-10T15:34:10.216Z,4.57
2018-05-10T15:36:37.748Z,3.13
2018-05-10T15:39:05.328Z,2.30
2018-05-10T15:41:32.831Z,3.07
2018-05-10T15:44:00.354Z,3.67
2018-05-10T15:46:27.952Z,2.00
2018-05-10T15:48:55.489Z,1.80
2018-05-10T15:51:22.995Z,2.60
2018-05-10T15:53:50.529Z,2.10
2018-05-10T15:56:18.094Z,6.13
2018-05-10T15:58:45.628Z,3.00
2018-05-10T16:01:13.143Z,2.27
2018-05-10T16:03:40.686Z,2.10
2018-05-10T16:06:08.212Z,3.50
2018-05-10T16:08:35.770Z,2.00
2018-05-10T16:11:03.296Z,3.77
2018-05-10T16:13:31.586Z,5.17
2018-05-10T16:15:59.135Z,3.20
2018-05-10T16:18:26.698Z,3.53
2018-05-10T16:20:54.249Z,5.53
2018-05-10T16:23:21.828Z,5.20
2018-05-10T16:25:49.364Z,4.50
2018-05-10T16:28:16.932Z,6.87
2018-05-10T16:30:44.483Z,5.60
2018-05-10T16:33:12.778Z,4.00
2018-05-10T16:35:40.307Z,4.43
2018-05-10T16:38:08.625Z,5.20
2018-05-10T16:40:36.150Z,5.00
2018-05-10T16:43:03.711Z,6.80
2018-05-10T16:45:32.014Z,5.87
2018-05-10T16:47:59.529Z,5.20
2018-05-10T16:50:27.119Z,7.23
2018-05-10T16:52:54.634Z,7.13
2018-05-10T16:55:22.148Z,6.60
2018-05-10T16:57:49.692Z,5.50
2018-05-10T17:00:17.236Z,7.97
2018-05-10T17:02:45.610Z,10.23
2018-05-10T17:05:13.953Z,6.73
2018-05-10T17:07:41.485Z,8.07
2018-05-10T17:10:09.801Z,10.50
2018-05-10T17:12:37.351Z,6.57
2018-05-10T17:15:04.873Z,6.60
2018-05-10T17:17:32.399Z,8.00
2018-05-10T17:19:59.964Z,6.37
2018-05-10T17:22:27.523Z,9.67
2018-05-10T17:24:55.068Z,5.67
2018-05-10T17:27:22.650Z,7.53
2018-05-10T17:29:50.194Z,8.80
2018-05-10T17:32:17.851Z,9.47
2018-05-10T17:34:46.169Z,7.23
2018-05-10T17:37:13.674Z,5.70
2018-05-10T17:39:41.205Z,6.63
2018-05-10T17:42:09.352Z,7.03
2018-05-10T17:44:36.879Z,6.17
2018-05-10T17:47:05.207Z,5.90
2018-05-10T17:49:32.741Z,6.33
2018-05-10T17:52:00.371Z,8.50
2018-05-10T17:54:27.904Z,5.33
2018-05-10T17:56:55.477Z,9.83
2018-05-10T17:59:22.999Z,9.13
2018-05-10T18:01:50.532Z,7.17
2018-05-10T18:04:18.071Z,6.97
2018-05-10T18:06:46.371Z,4.03
2018-05-10T18:09:13.902Z,5.50
2018-05-10T18:11:42.199Z,6.80
2018-05-10T18:14:10.511Z,6.90
2018-05-10T18:16:38.027Z,11.00
2018-05-10T18:19:05.527Z,6.03
2018-05-10T18:21:33.132Z,6.10
2018-05-10T18:24:00.694Z,5.30
2018-05-10T18:26:29.035Z,8.10
2018-05-10T18:28:56.580Z,6.17
2018-05-10T18:31:24.108Z,7.43
2018-05-10T18:33:51.653Z,8.73
2018-05-10T18:36:19.212Z,7.30
2018-05-10T18:38:46.738Z,5.50
2018-05-10T18:41:14.318Z,7.67
2018-05-10T18:43:42.618Z,6.43
2018-05-10T18:46:10.148Z,6.90
2018-05-10T18:48:37.729Z,9.87
2018-05-10T18:51:05.257Z,6.43
2018-05-10T18:53:32.768Z,5.57
2018-05-10T18:56:00.302Z,7.57
2018-05-10T18:58:27.840Z,7.67
2018-05-10T19:00:56.130Z,7.80
2018-05-10T19:03:23.679Z,9.07
2018-05-10T19:05:51.220Z,7.97
2018-05-10T19:08:18.785Z,6.43
2018-05-10T19:10:46.318Z,7.77
2018-05-10T19:13:13.853Z,6.83
2018-05-10T19:15:41.385Z,8.50
2018-05-10T19:18:08.951Z,8.40
2018-05-10T19:20:36.529Z,7.77
2018-05-10T19:23:04.068Z,7.53
2018-05-10T19:25:31.603Z,6.97
2018-05-10T19:27:59.923Z,10.40
2018-05-10T19:30:27.454Z,9.60
2018-05-10T19:32:55.209Z,8.40
2018-05-10T19:35:22.776Z,7.53
2018-05-10T19:37:50.307Z,13.50
2018-05-10T19:40:17.855Z,9.23
2018-05-10T19:42:45.432Z,7.73
2018-05-10T19:45:12.957Z,9.73
2018-05-10T19:47:40.501Z,10.73
2018-05-10T19:50:08.044Z,12.20
2018-05-10T19:52:35.579Z,6.83
2018-05-10T19:55:03.895Z,9.57
2018-05-10T19:57:31.422Z,9.43
2018-05-10T19:59:58.975Z,10.80
2018-05-10T20:02:26.541Z,9.23
2018-05-10T20:04:54.080Z,13.53
2018-05-10T20:07:22.380Z,8.67
2018-05-10T20:09:49.928Z,9.47
2018-05-10T20:12:17.443Z,10.03
2018-05-10T20:14:44.952Z,8.33
2018-05-10T20:17:12.546Z,8.37
2018-05-10T20:19:40.108Z,8.80
2018-05-10T20:22:07.627Z,9.53
2018-05-10T20:24:35.177Z,11.17
2018-05-10T20:27:02.731Z,14.57
2018-05-10T20:29:31.044Z,14.53
2018-05-10T20:31:58.620Z,8.13
2018-05-10T20:34:26.166Z,10.37
2018-05-10T20:36:53.699Z,10.97
2018-05-10T20:39:21.255Z,10.90
2018-05-10T20:41:48.811Z,6.50
2018-05-10T20:44:16.349Z,8.50
2018-05-10T20:46:43.891Z,14.73
2018-05-10T20:49:11.417Z,10.37
2018-05-10T20:51:38.976Z,9.90
2018-05-10T20:54:06.494Z,8.97
2018-05-10T20:56:34.036Z,9.47
2018-05-10T20:59:01.585Z,10.10
2018-05-10T21:01:29.131Z,7.47
2018-05-10T21:04:01.578Z,7.20
2018-05-10T21:06:29.103Z,7.47
2018-05-10T21:08:57.464Z,9.50
2018-05-10T21:11:24.992Z,11.10
2018-05-10T21:13:52.561Z,12.10
2018-05-10T21:16:20.163Z,8.20
2018-05-10T21:18:48.477Z,7.53
2018-05-10T21:21:16.003Z,11.80
2018-05-10T21:23:44.314Z,11.30
2018-05-10T21:26:11.901Z,8.90
2018-05-10T21:28:40.128Z,12.37
2018-05-10T21:31:07.726Z,9.40
2018-05-10T21:33:35.263Z,9.73
2018-05-10T21:36:02.777Z,9.37
2018-05-10T21:38:31.117Z,11.47
2018-05-10T21:40:58.635Z,10.47
2018-05-10T21:43:26.163Z,9.70
2018-05-10T21:45:54.513Z,14.30
2018-05-10T21:48:22.036Z,8.63
2018-05-10T21:50:49.570Z,9.63
2018-05-10T21:53:17.150Z,7.97
2018-05-10T21:55:44.695Z,9.90
2018-05-10T21:58:13.003Z,11.57
2018-05-10T22:00:40.664Z,11.63
2018-05-10T22:03:08.184Z,11.20
2018-05-10T22:05:35.765Z,14.23
2018-05-10T22:08:03.311Z,8.93
2018-05-10T22:10:30.835Z,11.40
2018-05-10T22:12:58.353Z,7.60
2018-05-10T22:15:25.946Z,7.80
2018-05-10T22:17:53.492Z,7.50
2018-05-10T22:20:21.027Z,10.53
2018-05-10T22:22:48.567Z,6.80
2018-05-10T22:25:16.899Z,8.53
2018-05-10T22:27:44.439Z,9.03
2018-05-10T22:30:12.091Z,6.17
2018-05-10T22:32:39.548Z,9.20
2018-05-10T22:35:07.105Z,9.20
2018-05-10T22:37:34.619Z,9.40
2018-05-10T22:40:02.180Z,9.60
2018-05-10T22:42:30.495Z,10.73
2018-05-10T22:44:57.999Z,6.70
2018-05-10T22:47:25.584Z,9.57
2018-05-10T22:49:53.120Z,9.10
2018-05-10T22:52:21.460Z,6.83
2018-05-10T22:54:49.005Z,7.83
2018-05-10T22:57:16.539Z,7.70
2018-05-10T22:59:44.119Z,8.67
2018-05-10T23:02:11.631Z,6.53
2018-05-10T23:04:39.166Z,7.17
2018-05-10T23:07:06.679Z,6.70
2018-05-10T23:09:34.256Z,7.07
2018-05-10T23:12:01.842Z,6.53
2018-05-10T23:14:29.345Z,8.53
2018-05-10T23:16:56.894Z,10.80
2018-05-10T23:19:24.483Z,6.83
2018-05-10T23:21:52.036Z,9.27
2018-05-10T23:24:19.577Z,8.10
2018-05-10T23:26:47.884Z,6.23
2018-05-10T23:29:16.168Z,7.37
2018-05-10T23:31:43.700Z,7.70
2018-05-10T23:34:35.159Z,6.47
2018-05-10T23:37:02.697Z,7.07
2018-05-10T23:39:30.194Z,4.87
2018-05-10T23:41:57.716Z,6.73
2018-05-10T23:44:31.368Z,8.20
2018-05-10T23:46:59.676Z,4.87
2018-05-10T23:49:27.219Z,7.00
2018-05-10T23:51:55.514Z,4.80
2018-05-10T23:54:23.034Z,4.00
2018-05-10T23:56:50.586Z,6.00
2018-05-10T23:59:18.091Z,5.30
